This is the latest recevied weather packets stored in our database for station/object DL4MGC-10. If no packets are shown the sender has not sent any weather packets the latest 10 day(s).
| Time | Temp. | Humidity | Pressure | Rain* | Wind** | Luminosity | Snow |
|---|---|---|---|---|---|---|---|
| 1788397935 | 15.56° C | 93% | 1022 hPa | - | - | - | - |
| 1788397035 | 15.56° C | 96% | 1021.9 hPa | - | - | - | - |
| 1788396135 | 17.22° C | 87% | 1021.8 hPa | - | - | - | - |
| 1788395235 | 18.33° C | 82% | 1021.9 hPa | - | - | - | - |
| 1788394335 | 17.78° C | 83% | 1021.9 hPa | - | - | - | - |
| 1788393435 | 18.33° C | 83% | 1021.8 hPa | - | - | - | - |
| 1788392534 | 17.78° C | 84% | 1022 hPa | - | - | - | - |
| 1788391634 | 18.89° C | 82% | 1021.9 hPa | - | - | - | - |
| 1788390734 | 18.89° C | 82% | 1021.9 hPa | - | - | - | - |
| 1788389834 | 18.89° C | 82% | 1022 hPa | - | - | - | - |
| 1788388934 | 18.89° C | 80% | 1021.8 hPa | - | - | - | - |
| 1788388034 | 19.44° C | 80% | 1022 hPa | - | - | - | - |
| 1788387134 | 18.89° C | 79% | 1021.9 hPa | - | - | - | - |
| 1788386234 | 19.44° C | 79% | 1021.8 hPa | - | - | - | - |
| 1788385334 | 19.44° C | 79% | 1021.6 hPa | - | - | - | - |
| 1788384433 | 19.44° C | 78% | 1021.6 hPa | - | - | - | - |
| 1788383533 | 20° C | 78% | 1021.6 hPa | - | - | - | - |
| 1788382633 | 20° C | 76% | 1021.5 hPa | - | - | - | - |
| 1788381733 | 20.56° C | 76% | 1021.4 hPa | - | - | - | - |
| 1788380833 | 20.56° C | 75% | 1021.3 hPa | - | - | - | - |
| 1788379933 | 21.11° C | 74% | 1021.3 hPa | - | - | - | - |
| 1788379033 | 21.11° C | 72% | 1021.2 hPa | - | - | - | - |
| 1788378133 | 21.67° C | 71% | 1021.2 hPa | - | - | - | - |
| 1788377233 | 21.67° C | 72% | 1021.1 hPa | - | - | - | - |
| 1788376333 | 21.67° C | 71% | 1021 hPa | - | - | - | - |
* Rain since midnight (hover to see other rain measurements)
** Current wind speed in m/s (hover to see current wind gust speed)